Wetumpka, AL

10:44 AM CDT on April 26, 2017 (GMT -0500)
Cotton Lakes | | Change Station

Elev 1 ft 32.55 °N, 86.23 °W | Updated 12 seconds ago

Partly Cloudy
Partly Cloudy
74.3 °F
Feels Like 77 °F
N
3.2
Wind Variable Wind from NNE

Today
High -- | Low -- °F
--% Chance of Precip.
Yesterday
High -- | Low -- °F
Precip. -- in
Pressure 29.84 in
Visibility 10.0 miles
Clouds Clear
Heat Index 77 °F
Dew Point 60 °F
Humidity 62%
Rainfall 0.00 in
Snow Depth Not available.
6:02 AM 7:22 PM
New Moon, 0% visible
METAR KMXF 261458Z AUTO 20008KT 10SM CLR 24/15 A2983 RMK AO2 SLP103 T02350154 50005
Pressure 29.84 in
Visibility 10.0 miles
Clouds Clear
Heat Index 77 °F
Dew Point 60 °F
Humidity 62%
Rainfall 0.00 in
Snow Depth Not available.
6:02 AM 7:22 PM
New Moon, 0% visible
METAR KMXF 261458Z AUTO 20008KT 10SM CLR 24/15 A2983 RMK AO2 SLP103 T02350154 50005

Get Severe Weather Alerts

Thanks for signing up!

Be on the lookout for a verification email in your inbox.

You'll start receiving the daily forecast at 8 AM.

×

10-Day Weather Forecast

Almanac

Astronomy

Apr. 26, 2017 Rise Set
Actual Time
Civil Twilight
Nautical Twilight
Astronomical Twilight
Moon
Length of Visible Light
Length of Day
Tomorrow will be .
, % of the Moon is Illuminated

Today's Extremes

State Highs State Lows

Community

WunderPhotos

WunderBlog® & News

Nearby

Air Quality

  Air Quality AQ Index Pollutant
Not available.

Snow Depth

Station Depth Elevation

Earthquake Activity

City Distance Mag. Time & Date
Minimum magnitude displayed is 2.5.

Coastal Water Temperatures

Place Temperature

Stations

Nearby Weather Stations

Station Location Temp. Windchill Dew Point Humidity Wind Precip. Elev Updated Type
                   

Watches & Warnings

There are currently no watches in effect.